createdAt,value
2019-02-14T00:01:51.023Z,6.37
2019-02-14T00:04:22.442Z,6.35
2019-02-14T00:06:51.094Z,6.34
2019-02-14T00:09:21.278Z,6.36
2019-02-14T00:11:49.569Z,6.39
2019-02-14T00:14:17.847Z,6.36
2019-02-14T00:16:46.107Z,6.35
2019-02-14T00:19:14.406Z,6.35
2019-02-14T00:21:42.722Z,6.34
2019-02-14T00:24:11.011Z,6.38
2019-02-14T00:26:39.293Z,6.41
2019-02-14T00:29:07.564Z,6.40
2019-02-14T00:31:35.862Z,6.38
2019-02-14T00:34:04.150Z,6.35
2019-02-14T00:36:32.411Z,6.35
2019-02-14T00:39:00.695Z,6.30
2019-02-14T00:41:28.963Z,6.34
2019-02-14T00:43:57.219Z,6.37
2019-02-14T00:46:25.511Z,6.39
2019-02-14T00:48:53.807Z,6.39
2019-02-14T00:51:22.091Z,6.37
2019-02-14T00:53:50.347Z,6.39
2019-02-14T00:56:18.655Z,6.41
2019-02-14T00:58:46.913Z,6.36
2019-02-14T01:01:15.200Z,6.38
2019-02-14T01:03:43.471Z,6.35
2019-02-14T01:06:11.749Z,6.35
2019-02-14T01:08:39.993Z,6.32
2019-02-14T01:11:08.323Z,6.32
2019-02-14T01:13:36.593Z,6.32
2019-02-14T01:16:05.232Z,6.30
2019-02-14T01:18:33.480Z,6.31
2019-02-14T01:21:01.760Z,6.32
2019-02-14T01:23:30.060Z,6.34
2019-02-14T01:25:58.338Z,6.33
2019-02-14T01:28:26.603Z,6.36
2019-02-14T01:30:54.896Z,6.33
2019-02-14T01:33:23.153Z,6.26
2019-02-14T01:35:51.438Z,6.26
2019-02-14T01:38:19.720Z,6.22
2019-02-14T01:40:47.988Z,6.20
2019-02-14T01:43:16.262Z,6.16
2019-02-14T01:45:44.544Z,6.12
2019-02-14T01:48:13.052Z,6.11
2019-02-14T01:50:41.350Z,6.07
2019-02-14T01:53:09.598Z,6.02
2019-02-14T01:55:37.882Z,6.02
2019-02-14T01:58:06.225Z,5.97
2019-02-14T02:00:34.580Z,5.95
2019-02-14T02:03:02.842Z,5.97
2019-02-14T02:05:31.128Z,5.88
2019-02-14T02:07:59.399Z,5.84
2019-02-14T02:10:27.700Z,5.81
2019-02-14T02:12:56.028Z,5.74
2019-02-14T02:15:24.298Z,5.71
2019-02-14T02:17:52.664Z,5.69
2019-02-14T02:20:20.935Z,5.68
2019-02-14T02:22:49.244Z,5.74
2019-02-14T02:25:17.518Z,5.70
2019-02-14T02:27:45.800Z,5.73
2019-02-14T02:30:15.242Z,5.62
2019-02-14T02:32:43.510Z,5.60
2019-02-14T02:35:11.784Z,5.63
2019-02-14T02:37:40.064Z,5.57
2019-02-14T02:40:09.185Z,5.57
2019-02-14T02:42:37.464Z,5.57
2019-02-14T02:45:29.721Z,5.58
2019-02-14T02:47:58.004Z,5.61
2019-02-14T02:50:26.257Z,5.69
2019-02-14T02:52:54.556Z,5.66
2019-02-14T02:55:22.874Z,5.62
2019-02-14T02:57:51.167Z,5.62
2019-02-14T03:00:19.449Z,5.61
2019-02-14T03:02:47.741Z,5.68
2019-02-14T03:05:16.276Z,5.67
2019-02-14T03:07:44.562Z,5.63
2019-02-14T03:10:13.773Z,5.69
2019-02-14T03:12:42.059Z,5.63
2019-02-14T03:15:14.856Z,5.62
2019-02-14T03:17:43.236Z,5.69
2019-02-14T03:20:12.727Z,5.75
2019-02-14T03:22:41.027Z,5.76
2019-02-14T03:25:19.988Z,5.77
2019-02-14T03:27:48.278Z,5.70
2019-02-14T03:30:16.940Z,5.73
2019-02-14T03:32:45.236Z,5.72
2019-02-14T03:35:13.509Z,5.73
2019-02-14T03:41:13.691Z,5.68
2019-02-14T03:43:41.949Z,5.66
2019-02-14T03:46:11.885Z,5.63
2019-02-14T03:48:40.171Z,5.65
2019-02-14T03:51:08.453Z,5.63
2019-02-14T03:53:36.733Z,5.61
2019-02-14T03:56:04.992Z,5.63
2019-02-14T03:58:33.283Z,5.68
2019-02-14T04:01:01.547Z,5.69
2019-02-14T04:03:29.836Z,5.69
2019-02-14T04:05:58.106Z,5.69
2019-02-14T04:08:26.397Z,5.64
2019-02-14T04:10:54.709Z,5.58
2019-02-14T04:13:23.299Z,5.53
2019-02-14T04:15:51.553Z,5.54
2019-02-14T04:18:19.851Z,5.59
2019-02-14T04:20:48.114Z,5.56
2019-02-14T04:23:16.436Z,5.66
2019-02-14T04:25:44.683Z,5.66
2019-02-14T04:28:12.947Z,5.61
2019-02-14T04:30:41.223Z,5.63
2019-02-14T04:33:09.497Z,5.67
2019-02-14T04:35:37.762Z,5.55
2019-02-14T04:38:06.047Z,5.60
2019-02-14T04:40:34.314Z,5.61
2019-02-14T04:43:02.623Z,5.65
2019-02-14T04:45:30.882Z,5.71
2019-02-14T04:47:59.168Z,5.75
2019-02-14T04:50:27.484Z,5.79
2019-02-14T04:52:55.761Z,5.81
2019-02-14T04:55:24.014Z,5.84
2019-02-14T04:57:52.304Z,5.84
2019-02-14T05:00:20.607Z,5.75
2019-02-14T05:02:48.903Z,5.69
2019-02-14T05:05:17.588Z,5.68
2019-02-14T05:07:45.890Z,5.70
2019-02-14T05:10:14.138Z,5.66
2019-02-14T05:12:42.551Z,5.63
2019-02-14T05:15:11.365Z,5.27
2019-02-14T05:17:39.664Z,5.69
2019-02-14T05:20:10.840Z,5.77
2019-02-14T05:22:39.108Z,5.68
2019-02-14T05:25:10.378Z,5.66
2019-02-14T05:27:38.878Z,5.63
2019-02-14T05:30:13.129Z,5.59
2019-02-14T05:32:41.414Z,5.56
2019-02-14T05:35:09.702Z,5.54
2019-02-14T05:37:39.735Z,5.58
2019-02-14T05:40:10.896Z,5.62
2019-02-14T05:42:39.553Z,5.61
2019-02-14T05:45:12.919Z,5.60
2019-02-14T05:47:41.210Z,5.56
2019-02-14T05:50:12.072Z,5.62
2019-02-14T05:52:40.336Z,5.69
2019-02-14T05:55:10.596Z,5.70
2019-02-14T05:57:38.855Z,5.66
2019-02-14T06:00:10.546Z,5.59
2019-02-14T06:02:38.800Z,5.56
2019-02-14T06:05:07.105Z,5.57
2019-02-14T06:07:35.407Z,5.57
2019-02-14T06:10:04.808Z,5.56
2019-02-14T06:12:33.167Z,5.48
2019-02-14T06:15:01.466Z,5.42
2019-02-14T06:17:29.748Z,5.42
2019-02-14T06:19:58.051Z,5.43
2019-02-14T06:22:26.318Z,5.55
2019-02-14T06:24:54.601Z,5.69
2019-02-14T06:27:22.897Z,5.68
2019-02-14T06:29:51.226Z,5.55
2019-02-14T06:32:19.497Z,5.45
2019-02-14T06:34:47.807Z,5.34
2019-02-14T06:37:16.055Z,5.34
2019-02-14T06:39:44.331Z,5.41
2019-02-14T06:42:12.763Z,5.45
2019-02-14T06:44:41.062Z,5.50
2019-02-14T06:47:09.536Z,5.44
2019-02-14T06:49:37.841Z,5.45
2019-02-14T06:52:06.169Z,5.44
2019-02-14T06:54:35.863Z,5.51
2019-02-14T06:57:04.134Z,5.56
2019-02-14T06:59:32.431Z,5.61
2019-02-14T07:02:00.707Z,5.66
2019-02-14T07:04:28.995Z,5.56
2019-02-14T07:06:57.259Z,5.52
2019-02-14T07:09:25.537Z,5.48
2019-02-14T07:11:53.825Z,5.45
2019-02-14T07:14:22.135Z,5.48
2019-02-14T07:16:50.406Z,5.54
2019-02-14T07:19:18.701Z,5.48
2019-02-14T07:21:49.702Z,5.44
2019-02-14T07:24:18.057Z,5.37
2019-02-14T07:26:46.327Z,5.35
2019-02-14T07:29:14.715Z,5.34
2019-02-14T07:31:42.989Z,5.29
2019-02-14T07:34:14.449Z,5.32
2019-02-14T07:36:42.740Z,5.32
2019-02-14T07:39:11.184Z,5.41
2019-02-14T07:41:39.459Z,5.48
2019-02-14T07:44:10.470Z,5.54
2019-02-14T07:46:40.381Z,5.47
2019-02-14T07:49:08.655Z,5.43
2019-02-14T07:51:37.003Z,5.40
2019-02-14T07:54:05.251Z,5.38
2019-02-14T07:56:33.543Z,5.36
2019-02-14T07:59:01.812Z,5.33
2019-02-14T08:01:30.091Z,5.35
2019-02-14T08:03:58.379Z,5.33
2019-02-14T08:06:29.641Z,5.35
2019-02-14T08:08:57.910Z,5.33
2019-02-14T08:11:26.195Z,5.34
2019-02-14T08:13:55.725Z,5.38
2019-02-14T08:16:23.941Z,5.43
2019-02-14T08:18:52.264Z,5.43
2019-02-14T08:21:20.532Z,5.39
2019-02-14T08:23:48.803Z,5.41
2019-02-14T08:26:17.055Z,5.45
2019-02-14T08:28:45.381Z,5.56
2019-02-14T08:31:13.880Z,5.17
2019-02-14T08:33:42.164Z,5.81
2019-02-14T08:36:10.410Z,5.96
2019-02-14T08:38:38.687Z,5.66
2019-02-14T08:41:08.989Z,5.71
2019-02-14T08:43:37.288Z,5.61
2019-02-14T08:46:07.646Z,5.62
2019-02-14T08:48:35.898Z,5.63
2019-02-14T08:51:04.163Z,5.62
2019-02-14T08:53:32.460Z,5.58
2019-02-14T08:56:00.727Z,5.80
2019-02-14T08:58:29.003Z,5.68
2019-02-14T09:00:57.264Z,5.60
2019-02-14T09:03:25.585Z,5.60
2019-02-14T09:05:53.842Z,5.67
2019-02-14T09:08:22.206Z,5.69
2019-02-14T09:10:50.417Z,5.93
2019-02-14T09:13:18.761Z,6.07
2019-02-14T09:15:47.017Z,5.98
2019-02-14T09:18:18.417Z,6.02
2019-02-14T09:20:46.694Z,6.07
2019-02-14T09:23:14.921Z,6.01
2019-02-14T09:25:43.473Z,6.02
2019-02-14T09:28:12.072Z,6.13
2019-02-14T09:30:40.714Z,6.21
2019-02-14T09:33:10.717Z,6.07
2019-02-14T09:35:39.275Z,6.03
2019-02-14T09:38:07.951Z,6.03
2019-02-14T09:40:37.943Z,6.11
2019-02-14T09:43:06.527Z,6.21
2019-02-14T09:45:35.092Z,6.38
2019-02-14T09:48:03.546Z,6.28
2019-02-14T09:50:31.822Z,6.36
2019-02-14T09:53:02.081Z,6.52
2019-02-14T09:55:30.364Z,6.62
2019-02-14T09:57:58.628Z,6.65
2019-02-14T10:00:26.906Z,6.99
2019-02-14T10:02:55.170Z,7.53
2019-02-14T10:05:23.447Z,7.89
2019-02-14T10:07:51.696Z,7.80
2019-02-14T10:10:21.618Z,7.95
2019-02-14T10:12:49.883Z,7.94
2019-02-14T10:15:18.167Z,8.08
2019-02-14T10:17:46.415Z,7.96
2019-02-14T10:20:17.256Z,8.16
2019-02-14T10:22:45.566Z,7.96
2019-02-14T10:25:14.167Z,7.96
2019-02-14T10:27:42.412Z,7.88
2019-02-14T10:30:13.437Z,7.74
2019-02-14T10:32:41.697Z,7.71
2019-02-14T10:35:09.968Z,7.73
2019-02-14T10:37:38.214Z,7.78
2019-02-14T10:40:12.066Z,7.83
2019-02-14T10:42:40.361Z,7.74
2019-02-14T10:45:16.584Z,7.65
2019-02-14T10:47:44.855Z,7.64
2019-02-14T10:50:13.136Z,7.62
2019-02-14T10:52:41.407Z,7.76
2019-02-14T10:55:11.718Z,7.81
2019-02-14T10:57:39.981Z,7.78
2019-02-14T11:00:17.308Z,7.82
2019-02-14T11:02:45.941Z,7.90
2019-02-14T11:05:14.959Z,7.84
2019-02-14T11:07:45.934Z,7.89
2019-02-14T11:10:18.069Z,7.91
2019-02-14T11:12:46.353Z,8.02
2019-02-14T11:15:21.852Z,8.10
2019-02-14T11:17:50.146Z,8.17
2019-02-14T11:20:18.422Z,8.19
2019-02-14T11:22:48.800Z,8.23
2019-02-14T11:25:19.795Z,8.30
2019-02-14T11:27:48.053Z,8.39
2019-02-14T11:30:16.411Z,8.35
2019-02-14T11:32:44.741Z,8.38
2019-02-14T11:35:13.014Z,8.48
2019-02-14T11:37:41.268Z,8.47
2019-02-14T11:40:11.600Z,8.47
2019-02-14T11:42:39.867Z,8.55
2019-02-14T11:45:22.353Z,8.57
2019-02-14T11:47:50.610Z,8.60
2019-02-14T11:50:19.029Z,8.67
2019-02-14T11:52:47.278Z,8.72
2019-02-14T11:55:15.552Z,8.80
2019-02-14T11:57:44.186Z,8.84
2019-02-14T12:00:18.830Z,8.86
2019-02-14T12:02:55.129Z,8.88
2019-02-14T12:05:17.651Z,8.88
2019-02-14T12:07:45.913Z,8.93
2019-02-14T12:10:14.550Z,9.00
2019-02-14T12:12:42.819Z,9.10
2019-02-14T12:15:12.326Z,9.18
2019-02-14T12:17:40.581Z,9.24
2019-02-14T12:20:14.066Z,9.29
2019-02-14T12:22:46.636Z,9.34
2019-02-14T12:25:15.175Z,9.11
2019-02-14T12:27:43.429Z,9.44
2019-02-14T12:30:13.640Z,9.51
2019-02-14T12:32:44.005Z,9.57
2019-02-14T12:35:12.269Z,9.62
2019-02-14T12:37:40.533Z,9.61
2019-02-14T12:40:13.642Z,9.71
2019-02-14T12:42:41.981Z,9.79
2019-02-14T12:45:20.544Z,9.83
2019-02-14T12:47:45.917Z,9.86
2019-02-14T12:50:14.200Z,9.90
2019-02-14T12:52:42.478Z,10.01
2019-02-14T12:55:10.755Z,10.13
2019-02-14T12:57:44.061Z,10.21
2019-02-14T13:00:19.492Z,10.28
2019-02-14T13:02:47.779Z,10.31
2019-02-14T13:05:16.068Z,10.46
2019-02-14T13:07:44.333Z,10.68
2019-02-14T13:10:36.337Z,10.85
2019-02-14T13:13:04.593Z,11.09
2019-02-14T13:15:32.863Z,11.35
2019-02-14T13:18:01.153Z,11.63
2019-02-14T13:20:29.424Z,11.83
2019-02-14T13:22:57.720Z,12.13
2019-02-14T13:25:26.001Z,12.33
2019-02-14T13:27:54.328Z,12.53
2019-02-14T13:30:26.956Z,12.62
2019-02-14T13:32:55.236Z,12.85
2019-02-14T13:35:23.490Z,12.95
2019-02-14T13:37:51.800Z,12.82
2019-02-14T13:40:20.051Z,12.95
2019-02-14T13:42:48.386Z,12.95
2019-02-14T13:45:22.196Z,12.94
2019-02-14T13:47:50.471Z,12.90
2019-02-14T13:50:18.735Z,12.79
2019-02-14T13:52:47.099Z,12.60
2019-02-14T13:55:15.349Z,12.55
2019-02-14T13:57:44.027Z,12.39
2019-02-14T14:00:18.237Z,12.26
2019-02-14T14:02:46.509Z,12.18
2019-02-14T14:05:14.762Z,12.08
2019-02-14T14:07:43.061Z,11.93
2019-02-14T14:10:11.331Z,11.82
2019-02-14T14:12:39.589Z,11.82
2019-02-14T14:15:09.487Z,11.69
2019-02-14T14:17:37.759Z,11.65
2019-02-14T14:20:07.473Z,11.63
2019-02-14T14:22:35.756Z,11.61
2019-02-14T14:25:05.261Z,11.52
2019-02-14T14:27:33.532Z,11.50
2019-02-14T14:30:01.806Z,11.42
2019-02-14T14:32:30.072Z,11.35
2019-02-14T14:34:58.361Z,11.32
2019-02-14T14:37:26.613Z,11.26
2019-02-14T14:39:54.884Z,11.21
2019-02-14T14:42:41.260Z,11.16
2019-02-14T14:45:11.172Z,11.08
2019-02-14T14:47:39.450Z,11.02
2019-02-14T14:50:08.283Z,10.99
2019-02-14T14:52:36.604Z,10.92
2019-02-14T14:55:05.754Z,10.85
2019-02-14T14:57:34.021Z,10.81
2019-02-14T15:00:02.285Z,10.76
2019-02-14T15:02:30.542Z,10.70
2019-02-14T15:04:58.811Z,10.62
2019-02-14T15:07:27.072Z,10.53
2019-02-14T15:09:57.614Z,10.52
2019-02-14T15:12:25.342Z,10.50
2019-02-14T15:14:53.615Z,10.43
2019-02-14T15:17:21.872Z,10.36
2019-02-14T15:19:50.149Z,10.31
2019-02-14T15:22:18.420Z,10.28
2019-02-14T15:24:46.718Z,10.23
2019-02-14T15:27:14.994Z,10.17
2019-02-14T15:29:43.430Z,10.11
2019-02-14T15:32:11.694Z,10.04
2019-02-14T15:34:39.969Z,9.97
2019-02-14T15:40:49.218Z,9.88
2019-02-14T15:43:17.478Z,9.75
2019-02-14T15:45:45.956Z,9.71
2019-02-14T15:48:50.846Z,9.65
2019-02-14T15:51:21.212Z,9.60
2019-02-14T15:53:49.494Z,9.52
2019-02-14T15:56:17.783Z,9.46
2019-02-14T15:58:46.124Z,9.37
2019-02-14T16:01:16.577Z,9.31
2019-02-14T16:03:48.074Z,9.27
2019-02-14T16:06:17.990Z,9.21
2019-02-14T16:08:47.166Z,9.13
2019-02-14T16:11:25.066Z,9.07
2019-02-14T16:13:54.961Z,9.00
2019-02-14T16:16:26.103Z,8.94
2019-02-14T16:18:54.384Z,8.88
2019-02-14T16:21:22.737Z,8.78
2019-02-14T16:23:52.938Z,8.71
2019-02-14T16:26:21.045Z,8.65
2019-02-14T16:28:49.305Z,8.58
2019-02-14T16:31:17.640Z,8.52
2019-02-14T16:33:47.967Z,8.45
2019-02-14T16:36:16.255Z,8.38
2019-02-14T16:38:44.522Z,8.30
2019-02-14T16:41:12.803Z,8.24
2019-02-14T16:43:41.059Z,8.16
2019-02-14T16:46:09.367Z,8.09
2019-02-14T16:48:37.629Z,8.02
2019-02-14T16:51:05.905Z,7.96
2019-02-14T16:53:34.152Z,7.87
2019-02-14T16:56:05.302Z,7.79
2019-02-14T16:58:33.607Z,7.72
2019-02-14T17:01:01.864Z,7.66
2019-02-14T17:03:30.152Z,7.59
2019-02-14T17:05:58.634Z,7.54
2019-02-14T17:08:26.862Z,7.48
2019-02-14T17:10:55.153Z,7.43
2019-02-14T17:13:23.448Z,7.38
2019-02-14T17:15:56.066Z,7.33
2019-02-14T17:18:24.384Z,7.27
2019-02-14T17:20:52.671Z,7.22
2019-02-14T17:23:20.930Z,7.17
2019-02-14T17:25:49.222Z,7.14
2019-02-14T17:28:17.486Z,7.10
2019-02-14T17:30:45.766Z,7.04
2019-02-14T17:33:14.040Z,7.00
2019-02-14T17:35:42.396Z,6.94
2019-02-14T17:38:10.676Z,6.89
2019-02-14T17:40:45.741Z,6.83
2019-02-14T17:43:08.946Z,6.78
2019-02-14T17:45:37.239Z,6.74
2019-02-14T17:48:05.503Z,6.67
2019-02-14T17:50:33.763Z,6.63
2019-02-14T17:53:02.047Z,6.59
2019-02-14T17:55:30.316Z,6.58
2019-02-14T17:57:58.599Z,6.51
2019-02-14T18:00:27.943Z,6.51
2019-02-14T18:02:56.231Z,6.50
2019-02-14T18:05:24.504Z,6.48
2019-02-14T18:07:52.791Z,6.43
2019-02-14T18:10:21.055Z,6.39
2019-02-14T18:12:49.306Z,6.36
2019-02-14T18:15:19.815Z,6.30
2019-02-14T18:17:48.107Z,6.29
2019-02-14T18:20:16.370Z,6.24
2019-02-14T18:22:44.664Z,6.21
2019-02-14T18:25:13.110Z,6.17
2019-02-14T18:27:41.464Z,6.13
2019-02-14T18:30:13.031Z,6.08
2019-02-14T18:32:41.330Z,6.04
2019-02-14T18:35:13.395Z,6.00
2019-02-14T18:37:41.684Z,5.91
2019-02-14T18:40:11.047Z,5.87
2019-02-14T18:42:42.138Z,5.81
2019-02-14T18:45:12.454Z,5.72
2019-02-14T18:47:40.721Z,5.71
2019-02-14T18:50:11.915Z,5.70
2019-02-14T18:52:40.193Z,5.64
2019-02-14T18:55:10.105Z,5.60
2019-02-14T18:57:38.376Z,5.56
2019-02-14T19:00:10.630Z,5.56
2019-02-14T19:02:38.973Z,5.46
2019-02-14T19:05:09.613Z,5.33
2019-02-14T19:07:37.888Z,5.26
2019-02-14T19:10:09.420Z,5.20
2019-02-14T19:12:37.697Z,5.17
2019-02-14T19:15:08.296Z,5.08
2019-02-14T19:17:36.727Z,5.02
2019-02-14T19:20:08.023Z,4.99
2019-02-14T19:22:36.311Z,4.83
2019-02-14T19:25:05.600Z,4.85
2019-02-14T19:27:33.944Z,4.81
2019-02-14T19:30:02.216Z,4.71
2019-02-14T19:32:30.506Z,4.68
2019-02-14T19:34:58.782Z,4.67
2019-02-14T19:37:27.064Z,4.58
2019-02-14T19:39:55.334Z,4.50
2019-02-14T19:42:23.674Z,4.47
2019-02-14T19:44:51.959Z,4.37
2019-02-14T19:47:20.237Z,4.25
2019-02-14T19:49:48.582Z,4.32
2019-02-14T19:52:16.855Z,4.32
2019-02-14T19:54:45.113Z,4.29
2019-02-14T19:57:13.470Z,4.26
2019-02-14T19:59:41.747Z,4.24
2019-02-14T20:02:10.098Z,4.06
2019-02-14T20:04:43.093Z,4.11
2019-02-14T20:07:11.352Z,4.10
2019-02-14T20:09:41.508Z,4.04
2019-02-14T20:12:09.664Z,4.00
2019-02-14T20:14:37.972Z,4.00
2019-02-14T20:17:07.104Z,3.96
2019-02-14T20:19:35.424Z,3.95
2019-02-14T20:22:03.721Z,3.97
2019-02-14T20:24:32.021Z,3.83
2019-02-14T20:27:00.298Z,3.85
2019-02-14T20:29:28.573Z,3.79
2019-02-14T20:31:56.848Z,3.75
2019-02-14T20:34:25.135Z,3.77
2019-02-14T20:36:53.409Z,3.73
2019-02-14T20:39:21.760Z,3.68
2019-02-14T20:41:50.033Z,3.52
2019-02-14T20:44:18.668Z,3.54
2019-02-14T20:46:46.938Z,3.56
2019-02-14T20:49:15.216Z,3.56
2019-02-14T20:51:43.500Z,3.52
2019-02-14T20:54:11.803Z,3.46
2019-02-14T20:56:40.093Z,3.44
2019-02-14T20:59:08.377Z,3.40
2019-02-14T21:01:38.325Z,2.78
2019-02-14T21:04:06.605Z,3.30
2019-02-14T21:06:34.893Z,3.23
2019-02-14T21:09:04.457Z,3.28
2019-02-14T21:11:36.346Z,3.23
2019-02-14T21:14:04.614Z,3.13
2019-02-14T21:16:32.899Z,3.15
2019-02-14T21:19:01.195Z,3.13
2019-02-14T21:21:29.452Z,3.05
2019-02-14T21:23:59.858Z,3.02
2019-02-14T21:26:27.942Z,2.97
2019-02-14T21:28:56.242Z,2.94
2019-02-14T21:31:24.530Z,3.00
2019-02-14T21:33:54.409Z,3.01
2019-02-14T21:36:24.111Z,3.00
2019-02-14T21:38:52.369Z,2.14
2019-02-14T21:41:22.310Z,2.95
2019-02-14T21:43:50.640Z,2.92
2019-02-14T21:46:19.056Z,2.86
2019-02-14T21:48:47.312Z,2.79
2019-02-14T21:51:15.595Z,2.77
2019-02-14T21:53:43.882Z,2.74
2019-02-14T21:56:15.076Z,2.68
2019-02-14T21:58:43.341Z,2.65
2019-02-14T22:01:12.195Z,2.56
2019-02-14T22:03:43.426Z,2.55
2019-02-14T22:06:11.715Z,2.64
2019-02-14T22:08:41.791Z,2.69
2019-02-14T22:11:12.818Z,2.65
2019-02-14T22:13:43.205Z,2.45
2019-02-14T22:16:11.088Z,2.46
2019-02-14T22:18:42.583Z,2.54
2019-02-14T22:21:10.943Z,2.55
2019-02-14T22:23:40.934Z,2.46
2019-02-14T22:26:10.841Z,2.49
2019-02-14T22:28:39.124Z,2.37
2019-02-14T22:31:08.143Z,2.35
2019-02-14T22:33:37.496Z,2.36
2019-02-14T22:36:06.778Z,2.26
2019-02-14T22:38:36.694Z,2.24
2019-02-14T22:41:05.358Z,2.28
2019-02-14T22:43:33.613Z,2.29
2019-02-14T22:46:03.718Z,2.24
2019-02-14T22:48:32.050Z,2.25
2019-02-14T22:51:00.519Z,2.18
2019-02-14T22:53:28.834Z,2.16
2019-02-14T22:55:57.065Z,2.16
2019-02-14T22:58:25.333Z,1.99
2019-02-14T23:00:55.900Z,2.05
2019-02-14T23:03:27.814Z,2.01
2019-02-14T23:05:56.042Z,2.01
2019-02-14T23:11:56.325Z,1.96
2019-02-14T23:14:24.583Z,1.84
2019-02-14T23:16:52.960Z,1.83
2019-02-14T23:19:21.223Z,1.84
2019-02-14T23:21:53.962Z,1.82
2019-02-14T23:24:22.232Z,1.82
2019-02-14T23:30:22.395Z,1.67
2019-02-14T23:32:50.663Z,1.69
2019-02-14T23:35:18.931Z,1.68
2019-02-14T23:37:47.240Z,1.63
2019-02-14T23:40:15.499Z,1.68
2019-02-14T23:42:43.783Z,1.55
2019-02-14T23:45:12.061Z,1.60
2019-02-14T23:47:40.337Z,1.58
2019-02-14T23:50:10.721Z,1.58
2019-02-14T23:52:38.997Z,1.55
2019-02-14T23:55:08.990Z,1.55
2019-02-14T23:57:37.300Z,1.56
